createdAt,value
2023-03-06T00:00:39.469Z,3.83
2023-03-06T00:03:06.300Z,3.85
2023-03-06T00:05:32.813Z,3.79
2023-03-06T00:07:59.600Z,3.81
2023-03-06T00:10:28.719Z,3.79
2023-03-06T00:12:57.602Z,3.74
2023-03-06T00:15:25.846Z,3.71
2023-03-06T00:17:53.178Z,3.68
2023-03-06T00:20:20.680Z,3.60
2023-03-06T00:22:47.235Z,3.54
2023-03-06T00:25:19.253Z,3.62
2023-03-06T00:27:45.789Z,3.60
2023-03-06T00:30:15.618Z,3.60
2023-03-06T00:32:42.772Z,3.56
2023-03-06T00:35:10.004Z,3.55
2023-03-06T00:37:36.949Z,3.54
2023-03-06T00:40:07.849Z,3.55
2023-03-06T00:42:34.336Z,3.52
2023-03-06T00:45:01.076Z,3.46
2023-03-06T00:47:27.829Z,3.52
2023-03-06T00:49:54.290Z,3.45
2023-03-06T00:52:20.816Z,3.44
2023-03-06T00:54:47.225Z,3.36
2023-03-06T00:57:13.633Z,3.30
2023-03-06T00:59:40.380Z,3.29
2023-03-06T01:02:06.907Z,3.23
2023-03-06T01:04:33.509Z,3.26
2023-03-06T01:07:00.186Z,3.20
2023-03-06T01:09:26.654Z,3.21
2023-03-06T01:11:53.094Z,3.19
2023-03-06T01:14:19.608Z,3.15
2023-03-06T01:16:46.823Z,3.18
2023-03-06T01:19:13.371Z,3.18
2023-03-06T01:21:39.959Z,3.17
2023-03-06T01:24:06.607Z,3.10
2023-03-06T01:26:33.469Z,3.06
2023-03-06T01:29:00.486Z,2.90
2023-03-06T01:31:27.073Z,2.86
2023-03-06T01:33:53.721Z,2.77
2023-03-06T01:36:20.280Z,2.84
2023-03-06T01:38:46.742Z,2.87
2023-03-06T01:41:15.956Z,2.91
2023-03-06T01:43:45.141Z,2.93
2023-03-06T01:46:26.369Z,2.92
2023-03-06T01:48:56.862Z,2.82
2023-03-06T01:51:27.197Z,2.79
2023-03-06T01:53:54.567Z,2.85
2023-03-06T01:56:21.630Z,2.91
2023-03-06T01:58:49.560Z,2.92
2023-03-06T02:01:17.284Z,2.93
2023-03-06T02:03:44.270Z,2.91
2023-03-06T02:06:11.027Z,2.93
2023-03-06T02:08:37.930Z,2.89
2023-03-06T02:11:19.676Z,2.87
2023-03-06T02:13:47.660Z,2.81
2023-03-06T02:16:16.440Z,2.79
2023-03-06T02:18:44.160Z,2.83
2023-03-06T02:21:20.125Z,2.81
2023-03-06T02:24:24.269Z,2.74
2023-03-06T02:26:52.588Z,2.70
2023-03-06T02:29:25.865Z,2.73
2023-03-06T02:31:52.558Z,2.69
2023-03-06T02:34:18.979Z,2.70
2023-03-06T02:36:49.017Z,2.73
2023-03-06T02:39:17.996Z,2.68
2023-03-06T02:41:44.432Z,2.67
2023-03-06T02:44:11.020Z,2.64
2023-03-06T02:46:37.446Z,2.54
2023-03-06T02:49:03.964Z,2.52
2023-03-06T02:51:30.536Z,2.49
2023-03-06T02:53:57.005Z,2.49
2023-03-06T02:56:23.432Z,2.44
2023-03-06T02:58:50.011Z,2.42
2023-03-06T03:01:16.548Z,2.44
2023-03-06T03:03:43.043Z,2.39
2023-03-06T03:06:09.595Z,2.42
2023-03-06T03:08:36.450Z,2.46
2023-03-06T03:11:03.739Z,2.45
2023-03-06T03:13:30.298Z,2.40
2023-03-06T03:16:02.275Z,2.43
2023-03-06T03:18:28.949Z,2.37
2023-03-06T03:20:55.776Z,2.44
2023-03-06T03:23:22.737Z,2.46
2023-03-06T03:25:49.199Z,2.44
2023-03-06T03:28:16.249Z,2.44
2023-03-06T03:30:43.057Z,2.45
2023-03-06T03:33:09.740Z,2.44
2023-03-06T03:35:36.827Z,2.43
2023-03-06T03:38:03.635Z,2.41
2023-03-06T03:40:30.090Z,2.39
2023-03-06T03:42:56.755Z,2.31
2023-03-06T03:45:23.319Z,2.30
2023-03-06T03:47:49.827Z,2.26
2023-03-06T03:50:16.382Z,2.25
2023-03-06T03:52:42.888Z,2.28
2023-03-06T03:55:09.473Z,2.31
2023-03-06T03:57:36.053Z,2.31
2023-03-06T04:00:02.497Z,2.26
2023-03-06T04:02:29.004Z,2.29
2023-03-06T04:04:55.568Z,2.34
2023-03-06T04:07:22.016Z,2.31
2023-03-06T04:09:49.075Z,2.31
2023-03-06T04:12:15.600Z,2.34
2023-03-06T04:14:42.057Z,2.34
2023-03-06T04:17:08.464Z,2.33
2023-03-06T04:19:34.895Z,2.33
2023-03-06T04:22:02.285Z,2.40
2023-03-06T04:24:28.715Z,2.40
2023-03-06T04:26:55.282Z,2.37
2023-03-06T04:29:21.789Z,2.28
2023-03-06T04:31:48.368Z,2.26
2023-03-06T04:34:14.933Z,2.27
2023-03-06T04:36:45.115Z,2.22
2023-03-06T04:39:12.952Z,2.31
2023-03-06T04:41:40.502Z,2.29
2023-03-06T04:44:07.700Z,2.33
2023-03-06T04:46:35.048Z,2.41
2023-03-06T04:49:01.882Z,2.39
2023-03-06T04:51:28.350Z,2.33
2023-03-06T04:53:54.773Z,2.31
2023-03-06T04:56:21.417Z,2.32
2023-03-06T04:58:47.829Z,2.28
2023-03-06T05:01:14.268Z,2.28
2023-03-06T05:03:40.937Z,2.31
2023-03-06T05:06:07.485Z,2.33
2023-03-06T05:08:33.976Z,2.37
2023-03-06T05:11:01.804Z,2.38
2023-03-06T05:13:28.637Z,2.41
2023-03-06T05:15:55.230Z,2.38
2023-03-06T05:18:21.827Z,2.45
2023-03-06T05:20:48.283Z,2.46
2023-03-06T05:23:14.729Z,2.50
2023-03-06T05:25:41.531Z,2.47
2023-03-06T05:28:08.355Z,2.43
2023-03-06T05:30:34.782Z,2.40
2023-03-06T05:33:01.308Z,2.34
2023-03-06T05:35:28.108Z,2.41
2023-03-06T05:37:54.824Z,2.28
2023-03-06T05:40:21.342Z,2.29
2023-03-06T05:42:47.871Z,2.30
2023-03-06T05:45:14.312Z,2.25
2023-03-06T05:47:40.996Z,2.32
2023-03-06T05:50:08.337Z,2.28
2023-03-06T05:52:34.840Z,2.36
2023-03-06T05:55:01.419Z,2.41
2023-03-06T05:57:27.935Z,2.46
2023-03-06T05:59:54.391Z,2.47
2023-03-06T06:02:20.934Z,2.51
2023-03-06T06:04:47.521Z,2.50
2023-03-06T06:07:15.616Z,2.54
2023-03-06T06:09:43.532Z,2.50
2023-03-06T06:12:09.897Z,2.52
2023-03-06T06:14:36.357Z,2.53
2023-03-06T06:17:03.019Z,2.51
2023-03-06T06:19:30.947Z,2.62
2023-03-06T06:21:57.683Z,2.60
2023-03-06T06:24:26.263Z,2.63
2023-03-06T06:26:55.465Z,2.60
2023-03-06T06:29:22.769Z,2.50
2023-03-06T06:31:50.254Z,2.59
2023-03-06T06:34:16.900Z,2.54
2023-03-06T06:36:43.764Z,2.61
2023-03-06T06:39:13.669Z,2.64
2023-03-06T06:41:56.964Z,2.67
2023-03-06T06:44:27.073Z,2.67
2023-03-06T06:49:40.492Z,2.72
2023-03-06T06:52:07.575Z,2.77
2023-03-06T06:54:34.683Z,2.74
2023-03-06T06:57:01.299Z,2.77
2023-03-06T06:59:27.770Z,2.85
2023-03-06T07:01:54.194Z,2.87
2023-03-06T07:04:20.758Z,2.88
2023-03-06T07:06:47.200Z,2.93
2023-03-06T07:09:14.268Z,2.92
2023-03-06T07:11:41.421Z,2.92
2023-03-06T07:14:07.882Z,2.95
2023-03-06T07:16:34.350Z,3.02
2023-03-06T07:19:00.817Z,3.03
2023-03-06T07:21:27.281Z,3.05
2023-03-06T07:23:54.313Z,3.11
2023-03-06T07:26:20.883Z,3.14
2023-03-06T07:28:52.617Z,3.11
2023-03-06T07:31:22.203Z,3.18
2023-03-06T07:33:52.530Z,3.29
2023-03-06T07:36:19.269Z,3.29
2023-03-06T07:38:45.897Z,3.28
2023-03-06T07:41:13.823Z,3.35
2023-03-06T07:43:41.435Z,3.32
2023-03-06T07:46:08.737Z,3.34
2023-03-06T07:48:36.565Z,3.35
2023-03-06T07:51:06.393Z,3.33
2023-03-06T07:53:33.978Z,3.44
2023-03-06T07:56:00.590Z,3.44
2023-03-06T07:58:27.312Z,3.53
2023-03-06T08:00:53.826Z,3.56
2023-03-06T08:03:20.248Z,3.64
2023-03-06T08:05:46.715Z,3.72
2023-03-06T08:08:13.231Z,3.71
2023-03-06T08:10:39.710Z,3.81
2023-03-06T08:13:06.236Z,3.83
2023-03-06T08:15:32.876Z,3.90
2023-03-06T08:17:59.355Z,4.00
2023-03-06T08:20:25.927Z,4.07
2023-03-06T08:22:52.518Z,4.13
2023-03-06T08:25:19.024Z,4.12
2023-03-06T08:27:47.345Z,4.09
2023-03-06T08:30:14.105Z,4.13
2023-03-06T08:32:40.570Z,4.08
2023-03-06T08:35:08.185Z,4.21
2023-03-06T08:37:34.815Z,4.27
2023-03-06T08:40:04.439Z,4.38
2023-03-06T08:42:32.258Z,4.50
2023-03-06T08:44:58.855Z,4.51
2023-03-06T08:47:25.419Z,4.61
2023-03-06T08:49:51.966Z,4.65
2023-03-06T08:52:20.008Z,4.73
2023-03-06T08:54:46.726Z,4.83
2023-03-06T08:57:13.327Z,4.95
2023-03-06T08:59:39.856Z,4.93
2023-03-06T09:02:07.589Z,5.04
2023-03-06T09:04:34.486Z,5.07
2023-03-06T09:07:01.443Z,5.09
2023-03-06T09:09:28.104Z,5.13
2023-03-06T09:11:54.904Z,5.19
2023-03-06T09:14:21.490Z,5.24
2023-03-06T09:16:48.048Z,5.23
2023-03-06T09:19:14.622Z,5.19
2023-03-06T09:21:41.324Z,5.21
2023-03-06T09:24:08.230Z,5.25
2023-03-06T09:26:51.605Z,5.24
2023-03-06T09:29:18.409Z,5.30
2023-03-06T09:31:45.673Z,5.40
2023-03-06T09:34:12.289Z,5.41
2023-03-06T09:36:54.971Z,5.46
2023-03-06T09:39:22.954Z,5.48
2023-03-06T09:41:50.864Z,5.50
2023-03-06T09:44:22.668Z,5.51
2023-03-06T09:47:10.809Z,5.51
2023-03-06T09:49:46.327Z,5.43
2023-03-06T09:52:12.931Z,5.54
2023-03-06T09:54:47.189Z,5.60
2023-03-06T09:57:21.696Z,5.63
2023-03-06T09:59:51.750Z,5.69
2023-03-06T10:02:26.844Z,5.81
2023-03-06T10:05:01.653Z,5.89
2023-03-06T10:07:50.729Z,6.01
2023-03-06T10:10:24.131Z,6.12
2023-03-06T10:13:05.535Z,6.05
2023-03-06T10:15:38.472Z,6.12
2023-03-06T10:18:05.555Z,6.16
2023-03-06T10:20:44.693Z,6.30
2023-03-06T10:23:24.178Z,6.48
2023-03-06T10:25:53.445Z,6.62
2023-03-06T10:28:27.772Z,6.77
2023-03-06T10:31:03.982Z,6.89
2023-03-06T10:33:43.661Z,7.02
2023-03-06T10:36:16.866Z,7.08
2023-03-06T10:38:44.828Z,7.15
2023-03-06T10:41:11.260Z,7.27
2023-03-06T10:43:43.321Z,7.40
2023-03-06T10:46:12.798Z,7.25
2023-03-06T10:48:42.293Z,7.48
2023-03-06T10:51:21.876Z,7.38
2023-03-06T10:53:56.122Z,7.51
2023-03-06T10:56:40.497Z,7.71
2023-03-06T10:59:17.036Z,7.90
2023-03-06T11:01:45.723Z,8.06
2023-03-06T11:04:29.393Z,8.29
2023-03-06T11:07:07.235Z,8.16
2023-03-06T11:09:34.104Z,8.23
2023-03-06T11:12:33.888Z,8.10
2023-03-06T11:15:06.266Z,8.23
2023-03-06T11:17:35.222Z,8.44
2023-03-06T11:20:23.746Z,8.24
2023-03-06T11:23:04.124Z,8.42
2023-03-06T11:25:53.864Z,8.51
2023-03-06T11:28:29.780Z,8.46
2023-03-06T11:31:13.547Z,8.40
2023-03-06T11:33:47.534Z,8.67
2023-03-06T11:36:20.129Z,8.71
2023-03-06T11:38:51.565Z,8.42
2023-03-06T11:41:49.739Z,8.07
2023-03-06T11:44:35.298Z,8.01
2023-03-06T11:47:23.892Z,8.12
2023-03-06T11:49:53.075Z,8.29
2023-03-06T11:52:28.173Z,8.45
2023-03-06T11:54:57.234Z,8.16
2023-03-06T11:57:42.278Z,8.31
2023-03-06T12:00:29.307Z,8.18
2023-03-06T12:03:09.266Z,8.31
2023-03-06T12:05:52.428Z,8.37
2023-03-06T12:08:51.270Z,8.41
2023-03-06T12:11:23.387Z,8.60
2023-03-06T12:14:06.557Z,8.67
2023-03-06T12:17:00.320Z,8.68
2023-03-06T12:19:43.171Z,8.68
2023-03-06T12:22:12.668Z,8.78
2023-03-06T12:24:59.065Z,8.59
2023-03-06T12:27:28.651Z,8.44
2023-03-06T12:30:29.235Z,8.45
2023-03-06T12:33:14.079Z,8.24
2023-03-06T12:35:54.883Z,8.24
2023-03-06T12:38:48.929Z,8.19
2023-03-06T12:41:32.396Z,8.12
2023-03-06T12:44:38.643Z,8.25
2023-03-06T12:47:10.252Z,8.41
2023-03-06T12:49:41.600Z,8.38
2023-03-06T12:52:11.020Z,8.35
2023-03-06T12:54:40.765Z,8.29
2023-03-06T12:57:09.284Z,8.26
2023-03-06T12:59:42.261Z,8.29
2023-03-06T13:02:36.384Z,8.48
2023-03-06T13:05:24.060Z,8.55
2023-03-06T13:08:02.923Z,8.59
2023-03-06T13:10:34.200Z,8.47
2023-03-06T13:13:04.992Z,8.54
2023-03-06T13:15:35.166Z,8.71
2023-03-06T13:18:22.436Z,8.91
2023-03-06T13:20:50.097Z,8.72
2023-03-06T13:23:43.931Z,8.82
2023-03-06T13:26:30.230Z,8.81
2023-03-06T13:28:58.292Z,8.80
2023-03-06T13:31:33.549Z,8.89
2023-03-06T13:34:05.036Z,8.86
2023-03-06T13:36:33.312Z,9.00
2023-03-06T13:39:04.866Z,9.16
2023-03-06T13:41:31.221Z,8.99
2023-03-06T13:44:00.130Z,9.10
2023-03-06T13:46:35.270Z,8.95
2023-03-06T13:49:16.018Z,8.54
2023-03-06T13:51:48.184Z,8.04
2023-03-06T13:54:44.061Z,8.27
2023-03-06T13:57:35.949Z,8.27
2023-03-06T14:00:19.710Z,8.29
2023-03-06T14:03:23.850Z,8.46
2023-03-06T14:05:51.437Z,8.47
2023-03-06T14:08:33.973Z,8.52
2023-03-06T14:11:20.548Z,8.62
2023-03-06T14:13:53.308Z,8.49
2023-03-06T14:16:26.010Z,8.38
2023-03-06T14:18:56.234Z,8.28
2023-03-06T14:21:51.579Z,8.31
2023-03-06T14:24:33.399Z,8.49
2023-03-06T14:27:00.547Z,8.42
2023-03-06T14:29:29.795Z,8.22
2023-03-06T14:31:59.158Z,8.17
2023-03-06T14:34:26.686Z,8.17
2023-03-06T14:37:00.059Z,8.13
2023-03-06T14:39:39.497Z,8.09
2023-03-06T14:42:19.977Z,8.07
2023-03-06T14:44:48.004Z,8.06
2023-03-06T14:47:33.013Z,8.05
2023-03-06T14:50:24.296Z,7.96
2023-03-06T14:52:55.901Z,7.93
2023-03-06T14:55:25.314Z,7.76
2023-03-06T14:58:25.564Z,7.71
2023-03-06T15:00:55.084Z,7.41
2023-03-06T15:03:27.785Z,6.97
2023-03-06T15:05:55.253Z,6.98
2023-03-06T15:08:26.637Z,6.88
2023-03-06T15:11:11.780Z,6.86
2023-03-06T15:13:38.526Z,6.69
2023-03-06T15:16:27.970Z,6.66
2023-03-06T15:19:01.549Z,6.56
2023-03-06T15:21:38.063Z,6.62
2023-03-06T15:24:32.098Z,6.65
2023-03-06T15:27:04.854Z,6.58
2023-03-06T15:29:31.618Z,6.52
2023-03-06T15:32:14.915Z,6.58
2023-03-06T15:34:41.437Z,6.62
2023-03-06T15:37:27.747Z,6.56
2023-03-06T15:40:18.173Z,6.67
2023-03-06T15:42:44.768Z,6.54
2023-03-06T15:45:16.623Z,6.72
2023-03-06T15:47:44.813Z,6.65
2023-03-06T15:50:16.883Z,6.69
2023-03-06T15:52:44.917Z,6.61
2023-03-06T15:55:13.629Z,6.53
2023-03-06T15:58:03.457Z,6.47
2023-03-06T16:00:34.066Z,6.54
2023-03-06T16:03:02.847Z,6.40
2023-03-06T16:05:29.346Z,6.25
2023-03-06T16:07:56.288Z,6.12
2023-03-06T16:10:25.380Z,6.05
2023-03-06T16:12:56.043Z,5.98
2023-03-06T16:15:26.936Z,5.90
2023-03-06T16:17:53.412Z,5.91
2023-03-06T16:20:22.714Z,5.86
2023-03-06T16:22:53.820Z,5.77
2023-03-06T16:25:22.558Z,5.70
2023-03-06T16:27:58.816Z,5.68
2023-03-06T16:30:28.701Z,5.68
2023-03-06T16:32:55.358Z,5.67
2023-03-06T16:35:21.953Z,5.68
2023-03-06T16:37:48.651Z,5.71
2023-03-06T16:40:19.952Z,5.68
2023-03-06T16:42:46.912Z,5.65
2023-03-06T16:45:13.974Z,5.58
2023-03-06T16:47:40.646Z,5.55
2023-03-06T16:50:16.765Z,5.52
2023-03-06T16:52:43.269Z,5.63
2023-03-06T16:55:09.867Z,5.60
2023-03-06T16:57:36.404Z,5.61
2023-03-06T17:00:03.188Z,5.68
2023-03-06T17:02:29.700Z,5.67
2023-03-06T17:04:56.308Z,5.61
2023-03-06T17:07:22.781Z,5.66
2023-03-06T17:09:49.299Z,5.47
2023-03-06T17:12:15.853Z,5.57
2023-03-06T17:14:42.241Z,5.40
2023-03-06T17:17:08.661Z,5.33
2023-03-06T17:19:35.137Z,5.25
2023-03-06T17:22:01.615Z,5.16
2023-03-06T17:24:28.128Z,5.07
2023-03-06T17:26:54.744Z,5.02
2023-03-06T17:29:21.226Z,5.02
2023-03-06T17:31:47.815Z,4.92
2023-03-06T17:34:14.286Z,4.87
2023-03-06T17:36:40.765Z,4.65
2023-03-06T17:39:07.223Z,4.62
2023-03-06T17:41:34.291Z,4.69
2023-03-06T17:44:01.787Z,4.69
2023-03-06T17:46:28.547Z,4.67
2023-03-06T17:48:55.446Z,4.74
2023-03-06T17:51:21.879Z,4.67
2023-03-06T17:53:49.204Z,4.59
2023-03-06T17:56:16.049Z,4.56
2023-03-06T17:58:42.443Z,4.60
2023-03-06T18:01:11.119Z,4.65
2023-03-06T18:03:38.706Z,4.60
2023-03-06T18:06:09.344Z,4.66
2023-03-06T18:08:37.047Z,4.59
2023-03-06T18:11:06.351Z,4.59
2023-03-06T18:13:33.916Z,4.55
2023-03-06T18:16:01.409Z,4.56
2023-03-06T18:18:28.552Z,4.53
2023-03-06T18:20:55.314Z,4.47
2023-03-06T18:23:23.326Z,4.46
2023-03-06T18:25:50.325Z,4.48
2023-03-06T18:28:16.839Z,4.41
2023-03-06T18:30:43.351Z,4.41
2023-03-06T18:33:10.355Z,4.35
2023-03-06T18:35:36.886Z,4.44
2023-03-06T18:38:03.438Z,4.45
2023-03-06T18:40:30.026Z,4.36
2023-03-06T18:42:56.576Z,4.44
2023-03-06T18:45:23.175Z,4.38
2023-03-06T18:47:49.768Z,4.37
2023-03-06T18:50:17.462Z,4.41
2023-03-06T18:52:44.623Z,4.36
2023-03-06T18:55:11.694Z,4.35
2023-03-06T18:57:38.783Z,4.35
2023-03-06T19:00:06.615Z,4.31
2023-03-06T19:02:33.082Z,4.32
2023-03-06T19:04:59.594Z,4.28
2023-03-06T19:07:26.018Z,4.32
2023-03-06T19:09:52.661Z,4.26
2023-03-06T19:12:19.151Z,4.42
2023-03-06T19:14:45.801Z,4.39
2023-03-06T19:17:12.418Z,4.37
2023-03-06T19:19:39.040Z,4.45
2023-03-06T19:22:05.964Z,4.35
2023-03-06T19:24:32.398Z,4.33
2023-03-06T19:26:58.853Z,4.39
2023-03-06T19:29:28.599Z,4.31
2023-03-06T19:31:57.199Z,4.36
2023-03-06T19:34:23.757Z,4.32
2023-03-06T19:36:50.915Z,4.39
2023-03-06T19:39:17.596Z,4.35
2023-03-06T19:41:46.625Z,4.35
2023-03-06T19:44:14.584Z,4.34
2023-03-06T19:46:41.506Z,4.34
2023-03-06T19:49:12.133Z,4.28
2023-03-06T19:51:39.112Z,4.24
2023-03-06T19:54:05.892Z,4.19
2023-03-06T19:56:33.606Z,4.15
2023-03-06T19:59:00.197Z,4.12
2023-03-06T20:01:28.200Z,4.07
2023-03-06T20:03:59.170Z,4.09
2023-03-06T20:06:28.507Z,4.05
2023-03-06T20:08:55.282Z,4.01
2023-03-06T20:11:26.777Z,4.05
2023-03-06T20:13:53.668Z,4.01
2023-03-06T20:16:20.676Z,3.95
2023-03-06T20:18:47.195Z,3.88
2023-03-06T20:21:14.422Z,3.96
2023-03-06T20:23:41.783Z,3.92
2023-03-06T20:26:12.019Z,3.93
2023-03-06T20:28:40.025Z,3.90
2023-03-06T20:31:13.372Z,3.88
2023-03-06T20:33:40.310Z,3.87
2023-03-06T20:36:26.756Z,3.79
2023-03-06T20:38:53.247Z,3.68
2023-03-06T20:41:23.598Z,3.69
2023-03-06T20:43:50.332Z,3.70
2023-03-06T20:46:17.909Z,3.66
2023-03-06T20:48:47.610Z,3.57
2023-03-06T20:51:35.981Z,3.61
2023-03-06T20:54:02.632Z,3.58
2023-03-06T20:56:32.006Z,3.63
2023-03-06T20:58:59.526Z,3.59
2023-03-06T21:01:33.468Z,3.60
2023-03-06T21:04:01.577Z,3.61
2023-03-06T21:06:28.740Z,3.62
2023-03-06T21:08:56.404Z,3.63
2023-03-06T21:11:23.103Z,3.59
2023-03-06T21:13:49.593Z,3.63
2023-03-06T21:16:18.416Z,3.71
2023-03-06T21:18:45.592Z,3.72
2023-03-06T21:21:20.424Z,3.65
2023-03-06T21:23:48.085Z,3.69
2023-03-06T21:26:17.844Z,3.66
2023-03-06T21:28:44.342Z,3.66
2023-03-06T21:31:12.709Z,3.64
2023-03-06T21:33:40.100Z,3.67
2023-03-06T21:36:07.096Z,3.69
2023-03-06T21:38:34.421Z,3.70
2023-03-06T21:41:13.467Z,3.78
2023-03-06T21:43:40.779Z,3.75
2023-03-06T21:46:07.545Z,3.78
2023-03-06T21:48:34.132Z,3.79
2023-03-06T21:51:19.132Z,3.82
2023-03-06T21:53:47.199Z,3.83
2023-03-06T21:56:15.526Z,3.81
2023-03-06T21:58:42.188Z,3.83
2023-03-06T22:01:14.258Z,3.91
2023-03-06T22:03:40.738Z,3.89
2023-03-06T22:06:12.940Z,3.90
2023-03-06T22:08:40.364Z,3.98
2023-03-06T22:11:13.252Z,4.01
2023-03-06T22:13:39.915Z,4.01
2023-03-06T22:16:07.069Z,4.04
2023-03-06T22:18:34.998Z,4.05
2023-03-06T22:21:07.115Z,4.13
2023-03-06T22:23:33.546Z,4.11
2023-03-06T22:26:12.407Z,4.18
2023-03-06T22:28:39.673Z,4.20
2023-03-06T22:31:08.499Z,4.19
2023-03-06T22:33:35.001Z,4.21
2023-03-06T22:36:07.677Z,4.12
2023-03-06T22:38:45.115Z,4.18
2023-03-06T22:41:13.563Z,4.15
2023-03-06T22:43:40.144Z,4.09
2023-03-06T22:46:09.329Z,4.22
2023-03-06T22:48:36.068Z,4.21
2023-03-06T22:51:16.639Z,4.24
2023-03-06T22:53:43.871Z,4.23
2023-03-06T22:56:12.421Z,4.26
2023-03-06T22:58:39.473Z,4.29
2023-03-06T23:01:10.117Z,4.31
2023-03-06T23:03:39.537Z,4.33
2023-03-06T23:06:11.540Z,4.33
2023-03-06T23:08:38.635Z,4.31
2023-03-06T23:11:14.581Z,4.32
2023-03-06T23:13:41.056Z,4.35
2023-03-06T23:16:09.038Z,4.38
2023-03-06T23:18:37.048Z,4.38
2023-03-06T23:21:21.499Z,4.40
2023-03-06T23:23:49.936Z,4.40
2023-03-06T23:26:17.393Z,4.46
2023-03-06T23:28:43.942Z,4.45
2023-03-06T23:31:14.314Z,4.47
2023-03-06T23:33:41.623Z,4.51
2023-03-06T23:36:14.825Z,4.53
2023-03-06T23:38:41.948Z,4.53
2023-03-06T23:41:12.679Z,4.53
2023-03-06T23:43:39.732Z,4.50
2023-03-06T23:46:07.302Z,4.50
2023-03-06T23:48:35.670Z,4.52
2023-03-06T23:51:12.846Z,4.52
2023-03-06T23:53:39.323Z,4.54
2023-03-06T23:56:06.855Z,4.54
2023-03-06T23:58:33.916Z,4.54
